Time;durP1;ratioP1;P1;durP2;ratioP2;P2;SDS_P1;SDS_P2;PMS_P1;PMS_P2;Temp;Humidity;BMP_temperature;BMP_pressure;BME280_temperature;BME280_humidity;BME280_pressure;Samples;Min_cycle;Max_cycle;Signal;HPM_P1;HPM_P2
2022/05/08 00:00:01;;;;;;;11.32;5.70;;;;;;;;;;4901158;29;20156;-80
2022/05/08 00:02:29;;;;;;;7.75;4.85;;;;;;;;;;4897403;29;20040;-82
2022/05/08 00:04:54;;;;;;;13.57;6.47;;;;;;;;;;4881637;29;20032;-82
2022/05/08 00:07:21;;;;;;;10.02;5.50;;;;;;;;;;4897590;29;20056;-82
2022/05/08 00:09:47;;;;;;;10.27;5.78;;;;;;;;;;4920326;29;20520;-81
2022/05/08 00:12:13;;;;;;;10.55;5.43;;;;;;;;;;4913134;29;20066;-78
2022/05/08 00:14:38;;;;;;;9.75;5.55;;;;;;;;;;4916625;29;20032;-82
2022/05/08 00:17:04;;;;;;;10.98;5.35;;;;;;;;;;4917087;29;20095;-82
2022/05/08 00:19:30;;;;;;;9.23;5.70;;;;;;;;;;4917140;29;20449;-82
2022/05/08 00:21:56;;;;;;;8.82;5.78;;;;;;;;;;4899982;29;20043;-82
2022/05/08 00:24:21;;;;;;;9.05;5.72;;;;;;;;;;4916824;29;20063;-83
2022/05/08 00:26:47;;;;;;;8.48;5.50;;;;;;;;;;4901142;29;20036;-82
2022/05/08 00:29:12;;;;;;;9.23;5.65;;;;;;;;;;4923560;29;20496;-82
2022/05/08 00:31:41;;;;;;;8.87;5.50;;;;;;;;;;4917402;29;20036;-83
2022/05/08 00:34:06;;;;;;;10.48;6.22;;;;;;;;;;4915979;29;20044;-83
2022/05/08 00:36:32;;;;;;;8.85;5.95;;;;;;;;;;4917161;29;20028;-84
2022/05/08 00:38:57;;;;;;;9.23;5.72;;;;;;;;;;4916026;29;20036;-82
2022/05/08 00:41:23;;;;;;;9.85;6.10;;;;;;;;;;4917158;29;20036;-81
2022/05/08 00:43:51;;;;;;;9.27;5.63;;;;;;;;;;4908591;29;20031;-79
2022/05/08 00:46:16;;;;;;;10.55;5.88;;;;;;;;;;4904517;29;20445;-78
2022/05/08 00:48:43;;;;;;;9.82;6.38;;;;;;;;;;4896788;29;20037;-79
2022/05/08 00:51:10;;;;;;;10.98;6.78;;;;;;;;;;4912267;29;20088;-79
2022/05/08 00:53:37;;;;;;;9.30;6.32;;;;;;;;;;4897185;29;20033;-79
2022/05/08 00:56:05;;;;;;;9.30;6.43;;;;;;;;;;4897760;29;20044;-79
2022/05/08 00:58:30;;;;;;;11.32;6.13;;;;;;;;;;4897665;29;20036;-79
2022/05/08 01:00:56;;;;;;;9.20;6.78;;;;;;;;;;4896779;29;20029;-79
2022/05/08 01:03:21;;;;;;;13.52;6.90;;;;;;;;;;4904702;29;20038;-80
2022/05/08 01:05:48;;;;;;;10.27;7.05;;;;;;;;;;4897181;29;20119;-79
2022/05/08 01:08:15;;;;;;;11.80;7.35;;;;;;;;;;4897517;29;20493;-79
2022/05/08 01:10:41;;;;;;;12.40;6.88;;;;;;;;;;4881007;29;20035;-78
2022/05/08 01:13:07;;;;;;;11.85;7.20;;;;;;;;;;4897573;29;20032;-79
2022/05/08 01:15:43;;;;;;;10.70;7.57;;;;;;;;;;4897271;29;20036;-79
2022/05/08 01:18:08;;;;;;;10.88;7.38;;;;;;;;;;4896974;29;20033;-80
2022/05/08 01:20:34;;;;;;;8.98;7.30;;;;;;;;;;4905104;29;20063;-79
2022/05/08 01:23:03;;;;;;;11.27;8.00;;;;;;;;;;4912564;29;20080;-80
2022/05/08 01:25:29;;;;;;;10.35;7.72;;;;;;;;;;4899809;29;20025;-81
2022/05/08 01:27:58;;;;;;;10.50;7.80;;;;;;;;;;4913844;29;20100;-80
2022/05/08 01:30:25;;;;;;;9.60;7.45;;;;;;;;;;4898419;29;20176;-80
2022/05/08 01:32:50;;;;;;;17.10;8.07;;;;;;;;;;4896963;29;20109;-80
2022/05/08 01:35:16;;;;;;;9.98;7.30;;;;;;;;;;4925677;29;20107;-80
2022/05/08 01:37:41;;;;;;;10.30;7.47;;;;;;;;;;4907967;29;20036;-80
2022/05/08 01:40:07;;;;;;;15.85;8.38;;;;;;;;;;4930650;29;20488;-83
2022/05/08 01:42:33;;;;;;;15.57;8.05;;;;;;;;;;4930311;29;20120;-84
2022/05/08 01:44:58;;;;;;;9.93;7.13;;;;;;;;;;4915430;29;20032;-85
2022/05/08 01:50:08;;;;;;;12.27;7.63;;;;;;;;;;4908384;29;20461;-83
2022/05/08 01:52:34;;;;;;;13.80;7.95;;;;;;;;;;4904397;29;20044;-83
2022/05/08 01:55:00;;;;;;;10.05;7.55;;;;;;;;;;4880098;29;20040;-84
2022/05/08 01:57:26;;;;;;;12.65;7.50;;;;;;;;;;4911956;29;20028;-84
2022/05/08 01:59:51;;;;;;;12.95;8.48;;;;;;;;;;4896262;29;20040;-84
2022/05/08 02:02:17;;;;;;;10.75;8.25;;;;;;;;;;4896467;29;20025;-82
2022/05/08 02:04:42;;;;;;;12.48;8.43;;;;;;;;;;4895715;29;20432;-84
2022/05/08 02:07:08;;;;;;;12.15;8.18;;;;;;;;;;4897622;29;20396;-84
2022/05/08 02:09:33;;;;;;;12.32;8.00;;;;;;;;;;4919957;29;20565;-83
2022/05/08 02:11:59;;;;;;;12.75;9.02;;;;;;;;;;4896007;29;20408;-84
2022/05/08 02:14:24;;;;;;;11.70;7.72;;;;;;;;;;4895606;29;20078;-84
2022/05/08 02:16:50;;;;;;;11.18;7.90;;;;;;;;;;4896273;29;20037;-83
2022/05/08 02:19:15;;;;;;;13.60;8.23;;;;;;;;;;4896950;29;20032;-80
2022/05/08 02:21:41;;;;;;;12.85;7.88;;;;;;;;;;4902432;29;20032;-81
2022/05/08 02:24:10;;;;;;;11.98;7.88;;;;;;;;;;4921479;29;20036;-86
2022/05/08 02:26:35;;;;;;;14.80;8.23;;;;;;;;;;4920702;29;20488;-82
2022/05/08 02:29:01;;;;;;;11.63;8.05;;;;;;;;;;4917435;29;20032;-83
2022/05/08 02:31:26;;;;;;;11.70;7.75;;;;;;;;;;4915829;29;20110;-83
2022/05/08 02:33:52;;;;;;;15.60;7.88;;;;;;;;;;4898214;29;20063;-83
2022/05/08 02:36:19;;;;;;;12.00;8.07;;;;;;;;;;4898949;29;20487;-84
2022/05/08 02:38:46;;;;;;;13.02;8.13;;;;;;;;;;4928876;29;20040;-82
2022/05/08 02:41:11;;;;;;;10.82;7.65;;;;;;;;;;4906586;29;20084;-81
2022/05/08 02:43:37;;;;;;;14.80;8.15;;;;;;;;;;4896874;29;20043;-82
2022/05/08 02:46:03;;;;;;;12.23;7.40;;;;;;;;;;4898106;29;20036;-83
2022/05/08 02:48:28;;;;;;;10.57;7.35;;;;;;;;;;4900047;29;20025;-82
2022/05/08 02:50:57;;;;;;;11.05;7.63;;;;;;;;;;4883579;29;20028;-82
2022/05/08 02:53:23;;;;;;;13.85;7.85;;;;;;;;;;4898328;29;20406;-82
2022/05/08 02:58:36;;;;;;;10.73;7.13;;;;;;;;;;4907193;29;20123;-81
2022/05/08 03:01:05;;;;;;;11.30;7.50;;;;;;;;;;4899665;29;20459;-83
2022/05/08 03:03:30;;;;;;;11.50;7.15;;;;;;;;;;4898398;29;20032;-82
2022/05/08 03:05:56;;;;;;;14.30;7.50;;;;;;;;;;4900491;29;20085;-83
2022/05/08 03:08:21;;;;;;;11.18;7.78;;;;;;;;;;4900725;29;20121;-81
2022/05/08 03:13:33;;;;;;;12.05;7.40;;;;;;;;;;4927046;29;20488;-82
2022/05/08 03:15:59;;;;;;;9.02;7.10;;;;;;;;;;4907396;29;20078;-81
2022/05/08 03:18:24;;;;;;;10.20;7.32;;;;;;;;;;4923130;29;20043;-82
2022/05/08 03:20:50;;;;;;;10.98;7.93;;;;;;;;;;4939849;29;20036;-82
2022/05/08 03:23:15;;;;;;;12.30;8.32;;;;;;;;;;4943517;29;20036;-81
2022/05/08 03:25:42;;;;;;;11.48;7.32;;;;;;;;;;4930265;29;20080;-82
2022/05/08 03:28:08;;;;;;;13.57;7.80;;;;;;;;;;4893566;29;20035;-80
2022/05/08 03:30:33;;;;;;;13.18;7.18;;;;;;;;;;4934529;29;20064;-82
2022/05/08 03:32:59;;;;;;;13.43;7.55;;;;;;;;;;4911141;29;20032;-83
2022/05/08 03:35:25;;;;;;;12.85;7.72;;;;;;;;;;4921205;29;20048;-82
2022/05/08 03:37:50;;;;;;;11.45;7.55;;;;;;;;;;4907762;29;20528;-79
2022/05/08 03:40:16;;;;;;;11.13;7.78;;;;;;;;;;4913214;29;20028;-80
2022/05/08 03:42:42;;;;;;;12.18;7.93;;;;;;;;;;4913834;29;20064;-82
2022/05/08 03:45:08;;;;;;;13.60;7.55;;;;;;;;;;4917962;29;20020;-81
2022/05/08 03:47:34;;;;;;;12.68;7.45;;;;;;;;;;4926602;29;20599;-82
2022/05/08 03:49:59;;;;;;;13.98;7.57;;;;;;;;;;4920642;29;20446;-81
2022/05/08 03:52:25;;;;;;;11.65;7.50;;;;;;;;;;4921727;29;20033;-82
2022/05/08 03:54:50;;;;;;;10.60;7.25;;;;;;;;;;4904543;29;20061;-81
2022/05/08 03:57:16;;;;;;;14.43;7.22;;;;;;;;;;4902370;29;20044;-83
2022/05/08 03:59:41;;;;;;;13.48;7.70;;;;;;;;;;4917849;29;20029;-82
2022/05/08 04:02:07;;;;;;;11.60;7.55;;;;;;;;;;4914261;29;20028;-81
2022/05/08 04:04:32;;;;;;;11.75;7.53;;;;;;;;;;4916262;29;20039;-84
2022/05/08 04:06:58;;;;;;;10.85;7.40;;;;;;;;;;4919455;29;20043;-81
2022/05/08 04:09:24;;;;;;;10.07;7.00;;;;;;;;;;4919462;29;20028;-82
2022/05/08 04:11:50;;;;;;;12.57;6.88;;;;;;;;;;4917012;29;20404;-81
2022/05/08 04:14:18;;;;;;;;;;;;;;;;;;4900941;29;20040;-84
2022/05/08 04:16:44;;;;;;;11.50;7.10;;;;;;;;;;4916685;29;20371;-84
2022/05/08 04:19:09;;;;;;;12.82;7.03;;;;;;;;;;4923200;29;20032;-82
2022/05/08 04:21:35;;;;;;;14.32;7.57;;;;;;;;;;4905180;29;20092;-83
2022/05/08 04:24:19;;;;;;;13.10;7.40;;;;;;;;;;4881503;29;20036;-83
2022/05/08 04:26:45;;;;;;;11.05;7.53;;;;;;;;;;4897615;29;20047;-82
2022/05/08 04:29:11;;;;;;;11.45;7.22;;;;;;;;;;4913117;29;20486;-81
2022/05/08 04:31:36;;;;;;;11.57;7.78;;;;;;;;;;4882187;29;20044;-81
2022/05/08 04:34:02;;;;;;;13.70;7.30;;;;;;;;;;4898159;29;20036;-83
2022/05/08 04:36:30;;;;;;;12.88;8.25;;;;;;;;;;4917879;29;20039;-82
2022/05/08 04:38:56;;;;;;;10.82;7.43;;;;;;;;;;4897206;29;20040;-83
2022/05/08 04:41:21;;;;;;;11.48;7.65;;;;;;;;;;4897377;29;20038;-83
2022/05/08 04:43:48;;;;;;;11.80;7.45;;;;;;;;;;4881416;29;20040;-81
2022/05/08 04:46:13;;;;;;;12.43;7.38;;;;;;;;;;4897216;29;20406;-82
2022/05/08 04:48:41;;;;;;;12.40;7.93;;;;;;;;;;4897574;29;20524;-84
2022/05/08 04:51:07;;;;;;;13.80;7.35;;;;;;;;;;4897387;29;20107;-83
2022/05/08 04:53:33;;;;;;;12.52;7.78;;;;;;;;;;4896675;29;20485;-83
2022/05/08 04:55:58;;;;;;;14.35;7.80;;;;;;;;;;4915170;29;20055;-84
2022/05/08 04:58:28;;;;;;;13.95;7.80;;;;;;;;;;4898412;29;20063;-83
2022/05/08 05:00:53;;;;;;;13.38;7.47;;;;;;;;;;4901760;29;20040;-83
2022/05/08 05:03:19;;;;;;;10.90;7.05;;;;;;;;;;4917172;29;20422;-83
2022/05/08 05:05:45;;;;;;;14.18;6.97;;;;;;;;;;4918571;29;20042;-83
2022/05/08 05:08:10;;;;;;;10.82;6.60;;;;;;;;;;4917439;29;20036;-81
2022/05/08 05:10:36;;;;;;;12.27;6.78;;;;;;;;;;4917090;29;20103;-83
2022/05/08 05:13:01;;;;;;;10.65;6.72;;;;;;;;;;4912327;29;20119;-82
2022/05/08 05:15:29;;;;;;;13.93;6.90;;;;;;;;;;4926204;23;20516;-76
2022/05/08 05:17:58;;;;;;;10.85;6.65;;;;;;;;;;4881221;29;20032;-77
2022/05/08 05:20:23;;;;;;;12.50;6.43;;;;;;;;;;4881294;29;20556;-76
2022/05/08 05:22:49;;;;;;;12.45;7.10;;;;;;;;;;4896484;29;20120;-76
2022/05/08 05:25:14;;;;;;;9.95;6.97;;;;;;;;;;4897651;29;20117;-77
2022/05/08 05:27:40;;;;;;;14.38;8.20;;;;;;;;;;4895313;29;20477;-76
2022/05/08 05:30:06;;;;;;;11.75;8.60;;;;;;;;;;4896266;29;20025;-77
2022/05/08 05:32:31;;;;;;;11.35;7.05;;;;;;;;;;4896634;29;20024;-77
2022/05/08 05:34:57;;;;;;;11.48;6.85;;;;;;;;;;4897219;29;20393;-76
2022/05/08 05:37:22;;;;;;;13.02;6.53;;;;;;;;;;4896083;29;20405;-76
2022/05/08 05:39:48;;;;;;;12.10;6.63;;;;;;;;;;4896508;29;20030;-77
2022/05/08 05:42:13;;;;;;;12.70;6.55;;;;;;;;;;4895910;29;20040;-76
2022/05/08 05:44:39;;;;;;;12.77;6.85;;;;;;;;;;4895886;29;20032;-76
2022/05/08 05:49:49;;;;;;;12.77;6.88;;;;;;;;;;4897393;29;20064;-76
2022/05/08 05:52:14;;;;;;;11.65;6.38;;;;;;;;;;4897776;29;20080;-75
2022/05/08 05:54:40;;;;;;;11.52;7.10;;;;;;;;;;4895677;29;20392;-77
2022/05/08 05:57:05;;;;;;;12.68;6.57;;;;;;;;;;4895605;29;20039;-76
2022/05/08 05:59:31;;;;;;;12.98;7.13;;;;;;;;;;4894928;29;20036;-76
2022/05/08 06:01:56;;;;;;;10.68;6.97;;;;;;;;;;4892583;29;20044;-76
2022/05/08 06:04:22;;;;;;;11.40;6.82;;;;;;;;;;4878048;29;20076;-75
2022/05/08 06:06:47;;;;;;;9.98;5.78;;;;;;;;;;4878147;29;20037;-76
2022/05/08 06:09:12;;;;;;;10.40;6.63;;;;;;;;;;4877227;29;20029;-77
2022/05/08 06:11:38;;;;;;;10.52;6.53;;;;;;;;;;4861444;29;20029;-75
2022/05/08 06:14:03;;;;;;;8.45;5.93;;;;;;;;;;4876984;29;20035;-78
2022/05/08 06:16:31;;;;;;;10.00;6.53;;;;;;;;;;4876366;29;20048;-77
2022/05/08 06:18:56;;;;;;;13.02;6.82;;;;;;;;;;4895738;29;20492;-76
2022/05/08 06:21:22;;;;;;;11.82;6.75;;;;;;;;;;4900078;29;20099;-77
2022/05/08 06:23:48;;;;;;;13.45;7.00;;;;;;;;;;4900049;29;20611;-77
2022/05/08 06:26:15;;;;;;;10.23;6.05;;;;;;;;;;4899111;29;20029;-77
2022/05/08 06:28:41;;;;;;;13.90;6.30;;;;;;;;;;4898961;29;20484;-77
2022/05/08 06:31:07;;;;;;;8.27;5.88;;;;;;;;;;4900303;29;20115;-76
2022/05/08 06:33:32;;;;;;;8.75;5.88;;;;;;;;;;4899862;29;20054;-77
2022/05/08 06:35:58;;;;;;;10.57;6.20;;;;;;;;;;4897735;29;20047;-77
2022/05/08 06:38:24;;;;;;;9.63;6.07;;;;;;;;;;4900196;29;20035;-77
2022/05/08 06:40:49;;;;;;;9.02;6.13;;;;;;;;;;4900262;29;20088;-77
2022/05/08 06:43:15;;;;;;;10.65;6.00;;;;;;;;;;4898346;29;20464;-77
2022/05/08 06:45:40;;;;;;;8.70;6.07;;;;;;;;;;4900430;29;20649;-77
2022/05/08 06:48:06;;;;;;;11.20;6.57;;;;;;;;;;4883345;29;20503;-77
2022/05/08 06:50:33;;;;;;;7.35;5.22;;;;;;;;;;4899820;29;20045;-78
2022/05/08 06:52:59;;;;;;;7.10;5.25;;;;;;;;;;4898305;29;20053;-76
2022/05/08 06:55:24;;;;;;;8.93;5.38;;;;;;;;;;4895426;29;20446;-78
2022/05/08 06:57:50;;;;;;;11.50;5.88;;;;;;;;;;4895381;29;20033;-78
2022/05/08 07:03:02;;;;;;;7.65;5.38;;;;;;;;;;4879236;29;20076;-76
2022/05/08 07:05:27;;;;;;;9.75;5.85;;;;;;;;;;4880716;29;20088;-75
2022/05/08 07:07:57;;;;;;;9.38;5.88;;;;;;;;;;4889234;29;20092;-75
2022/05/08 07:10:23;;;;;;;11.52;5.90;;;;;;;;;;4895255;29;20397;-75
2022/05/08 07:12:48;;;;;;;8.75;5.88;;;;;;;;;;4894967;29;20033;-78
2022/05/08 07:15:14;;;;;;;8.73;5.75;;;;;;;;;;4879750;29;20044;-77
2022/05/08 07:17:39;;;;;;;7.85;5.28;;;;;;;;;;4880959;29;20033;-76
2022/05/08 07:20:05;;;;;;;7.35;4.78;;;;;;;;;;4879642;29;20028;-77
2022/05/08 07:22:33;;;;;;;12.35;6.00;;;;;;;;;;4881956;29;20492;-77
2022/05/08 07:24:58;;;;;;;7.47;5.10;;;;;;;;;;4897862;29;20105;-77
2022/05/08 07:27:23;;;;;;;10.50;5.55;;;;;;;;;;4899070;29;20111;-76
2022/05/08 07:29:52;;;;;;;10.30;5.82;;;;;;;;;;4899183;29;20043;-76
2022/05/08 07:32:18;;;;;;;8.80;5.07;;;;;;;;;;4898260;29;20028;-75
2022/05/08 07:37:28;;;;;;;7.10;4.50;;;;;;;;;;4899116;29;20088;-76
2022/05/08 07:39:54;;;;;;;7.60;4.28;;;;;;;;;;4897290;29;20135;-75
2022/05/08 07:42:19;;;;;;;7.82;4.28;;;;;;;;;;4899073;29;20071;-75
2022/05/08 07:44:44;;;;;;;6.85;4.18;;;;;;;;;;4897080;29;20033;-78
2022/05/08 07:47:10;;;;;;;8.75;4.95;;;;;;;;;;4897423;29;20528;-74
2022/05/08 07:49:35;;;;;;;6.45;4.15;;;;;;;;;;4898825;29;20116;-76
2022/05/08 07:52:01;;;;;;;7.47;3.95;;;;;;;;;;4898797;29;20037;-78
2022/05/08 07:54:27;;;;;;;7.95;4.13;;;;;;;;;;4898160;29;20044;-77
2022/05/08 07:56:52;;;;;;;7.15;4.68;;;;;;;;;;4896519;29;20032;-75
2022/05/08 07:59:18;;;;;;;6.05;4.13;;;;;;;;;;4881683;29;20071;-76
2022/05/08 08:01:43;;;;;;;8.48;4.50;;;;;;;;;;4899122;29;20032;-77
2022/05/08 08:04:10;;;;;;;9.23;5.00;;;;;;;;;;4897959;29;20108;-78
2022/05/08 08:06:36;;;;;;;7.10;4.65;;;;;;;;;;4882446;29;20483;-77
2022/05/08 08:09:04;;;;;;;6.53;4.20;;;;;;;;;;4897941;29;20116;-76
2022/05/08 08:11:30;;;;;;;5.88;3.70;;;;;;;;;;4882123;29;20214;-74
2022/05/08 08:13:55;;;;;;;5.60;3.42;;;;;;;;;;4897312;29;20056;-77
2022/05/08 08:16:21;;;;;;;9.40;3.80;;;;;;;;;;4898329;29;20484;-75
2022/05/08 08:18:48;;;;;;;10.15;3.67;;;;;;;;;;4898661;29;20039;-75
2022/05/08 08:21:15;;;;;;;5.90;3.67;;;;;;;;;;4898486;29;20021;-75
2022/05/08 08:23:42;;;;;;;5.95;3.33;;;;;;;;;;4896803;29;20048;-76
2022/05/08 08:26:11;;;;;;;6.30;3.40;;;;;;;;;;4896666;29;20058;-77
2022/05/08 08:28:37;;;;;;;5.72;3.00;;;;;;;;;;4897148;29;20041;-75
2022/05/08 08:31:05;;;;;;;13.88;4.68;;;;;;;;;;4897528;29;20600;-75
2022/05/08 08:33:30;;;;;;;8.50;4.77;;;;;;;;;;4897840;29;20080;-75
2022/05/08 08:35:56;;;;;;;8.50;4.28;;;;;;;;;;4898177;29;20448;-76
2022/05/08 08:38:21;;;;;;;7.72;3.88;;;;;;;;;;4898105;29;20085;-76
2022/05/08 08:40:49;;;;;;;5.82;3.47;;;;;;;;;;4898201;29;20528;-77
2022/05/08 08:43:17;;;;;;;6.10;3.90;;;;;;;;;;4895892;29;20060;-78
2022/05/08 08:48:30;;;;;;;5.88;3.83;;;;;;;;;;4897503;29;20037;-77
2022/05/08 08:50:57;;;;;;;8.40;4.38;;;;;;;;;;4898276;29;20051;-77
2022/05/08 08:53:22;;;;;;;8.40;4.20;;;;;;;;;;4898790;29;20072;-77
2022/05/08 08:55:49;;;;;;;7.82;4.75;;;;;;;;;;4912538;29;20115;-77
2022/05/08 08:58:16;;;;;;;7.30;3.95;;;;;;;;;;4898260;29;20039;-77
2022/05/08 09:00:42;;;;;;;6.68;4.03;;;;;;;;;;4897338;29;20032;-77
2022/05/08 09:03:07;;;;;;;7.95;4.82;;;;;;;;;;4895934;29;20072;-78
2022/05/08 09:05:34;;;;;;;8.05;4.70;;;;;;;;;;4898389;29;20063;-76
2022/05/08 09:08:00;;;;;;;9.70;4.40;;;;;;;;;;4898817;29;20025;-76
2022/05/08 09:10:27;;;;;;;8.75;4.90;;;;;;;;;;4896802;29;20556;-77
2022/05/08 09:12:53;;;;;;;8.68;4.47;;;;;;;;;;4896090;29;20055;-77
2022/05/08 09:15:20;;;;;;;10.15;4.95;;;;;;;;;;4897300;29;20441;-77
2022/05/08 09:17:49;;;;;;;10.57;4.50;;;;;;;;;;4897539;29;20036;-78
2022/05/08 09:20:28;;;;;;;10.38;7.35;;;;;;;;;;4895909;29;20172;-77
2022/05/08 09:23:09;;;;;;;11.93;4.93;;;;;;;;;;4897406;29;20047;-77
2022/05/08 09:25:44;;;;;;;9.10;4.45;;;;;;;;;;4898145;29;20112;-78
2022/05/08 09:28:13;;;;;;;7.75;4.05;;;;;;;;;;4899806;29;20060;-77
2022/05/08 09:30:55;;;;;;;10.00;4.65;;;;;;;;;;4883880;29;20062;-77
2022/05/08 09:33:22;;;;;;;10.63;4.47;;;;;;;;;;4899186;29;20036;-75
2022/05/08 09:35:48;;;;;;;13.13;4.70;;;;;;;;;;4897697;29;20096;-77
2022/05/08 09:38:13;;;;;;;10.25;5.07;;;;;;;;;;4897800;29;20490;-75
2022/05/08 09:40:39;;;;;;;9.73;4.00;;;;;;;;;;4897076;29;20025;-77
2022/05/08 09:43:05;;;;;;;8.68;4.35;;;;;;;;;;4896852;29;20445;-76
2022/05/08 09:45:31;;;;;;;8.52;4.60;;;;;;;;;;4896032;29;20396;-78
2022/05/08 09:47:57;;;;;;;9.52;4.43;;;;;;;;;;4897531;29;20105;-77
2022/05/08 09:50:22;;;;;;;11.38;4.40;;;;;;;;;;4897101;29;20488;-76
2022/05/08 09:52:48;;;;;;;10.32;4.85;;;;;;;;;;4895815;29;20032;-76
2022/05/08 09:55:19;;;;;;;7.88;4.50;;;;;;;;;;4898658;29;20024;-77
2022/05/08 09:57:45;;;;;;;10.90;4.20;;;;;;;;;;4910143;29;20064;-78
2022/05/08 10:00:12;;;;;;;9.38;4.07;;;;;;;;;;4906070;29;20084;-75
2022/05/08 10:02:38;;;;;;;8.77;4.07;;;;;;;;;;4904178;29;20499;-78
2022/05/08 10:05:04;;;;;;;9.43;4.20;;;;;;;;;;4902978;29;20115;-75
2022/05/08 10:07:31;;;;;;;9.27;5.07;;;;;;;;;;4905523;29;20024;-77
2022/05/08 10:15:35;;;;;;;10.43;4.72;;;;;;;;;;4900712;29;20021;-78
2022/05/08 10:18:18;;;;;;;8.52;4.47;;;;;;;;;;4899930;29;20038;-77
2022/05/08 10:21:03;;;;;;;7.03;3.83;;;;;;;;;;4884204;29;20575;-77
2022/05/08 10:23:50;;;;;;;9.25;4.43;;;;;;;;;;4900655;29;20036;-77
2022/05/08 10:26:20;;;;;;;9.95;4.20;;;;;;;;;;4899849;29;20173;-76
2022/05/08 10:29:03;;;;;;;8.32;4.50;;;;;;;;;;4899750;29;20111;-75
2022/05/08 10:31:48;;;;;;;11.73;4.57;;;;;;;;;;4883643;29;20036;-77
2022/05/08 10:34:15;;;;;;;9.77;4.28;;;;;;;;;;4900124;29;20037;-77
2022/05/08 10:37:00;;;;;;;10.82;3.70;;;;;;;;;;4901418;29;20041;-76
2022/05/08 10:39:45;;;;;;;12.27;4.60;;;;;;;;;;4901518;29;20028;-78
2022/05/08 10:42:30;;;;;;;7.50;3.90;;;;;;;;;;4900350;29;20093;-77
2022/05/08 10:44:58;;;;;;;9.95;5.32;;;;;;;;;;4899714;29;20509;-76
2022/05/08 10:47:36;;;;;;;6.43;3.42;;;;;;;;;;4899471;29;20032;-76
2022/05/08 10:50:05;;;;;;;7.63;3.80;;;;;;;;;;4901875;29;20025;-75
2022/05/08 10:52:37;;;;;;;8.40;3.85;;;;;;;;;;4900185;29;20107;-77
2022/05/08 10:55:04;;;;;;;6.65;3.50;;;;;;;;;;4899715;29;20040;-78
2022/05/08 10:57:29;;;;;;;6.75;3.50;;;;;;;;;;4900895;29;20043;-76
2022/05/08 10:59:55;;;;;;;5.45;3.33;;;;;;;;;;4899665;29;20033;-78
2022/05/08 11:02:42;;;;;;;11.45;4.00;;;;;;;;;;4899732;29;20028;-76
2022/05/08 11:05:07;;;;;;;14.05;3.75;;;;;;;;;;4897979;29;20043;-77
2022/05/08 11:07:33;;;;;;;8.57;3.63;;;;;;;;;;4899167;29;20497;-76
2022/05/08 11:10:00;;;;;;;8.30;3.30;;;;;;;;;;4898981;29;20065;-77
2022/05/08 11:12:26;;;;;;;9.07;3.97;;;;;;;;;;4899040;29;20033;-77
2022/05/08 11:15:10;;;;;;;10.73;3.65;;;;;;;;;;4898961;29;20035;-77
2022/05/08 11:17:36;;;;;;;8.15;3.33;;;;;;;;;;4936286;23;20047;-80
2022/05/08 11:20:04;;;;;;;7.43;3.05;;;;;;;;;;4936490;29;20036;-80
2022/05/08 11:22:31;;;;;;;5.80;3.20;;;;;;;;;;4936060;29;20035;-79
2022/05/08 11:25:12;;;;;;;8.45;3.05;;;;;;;;;;4902469;29;20517;-80
2022/05/08 11:27:38;;;;;;;10.52;3.35;;;;;;;;;;4918675;29;20024;-80
2022/05/08 11:30:05;;;;;;;6.75;2.80;;;;;;;;;;4919627;29;20058;-80
2022/05/08 11:38:14;;;;;;;6.13;3.05;;;;;;;;;;4939040;29;20446;-80
2022/05/08 11:40:40;;;;;;;9.48;3.15;;;;;;;;;;4927783;29;20114;-80
2022/05/08 11:43:07;;;;;;;7.68;3.15;;;;;;;;;;4936948;29;20106;-80
2022/05/08 11:45:32;;;;;;;8.40;3.67;;;;;;;;;;4921046;29;20111;-80
2022/05/08 11:47:59;;;;;;;8.30;2.60;;;;;;;;;;4938024;29;20451;-80
2022/05/08 11:50:24;;;;;;;8.93;3.05;;;;;;;;;;4922390;29;20024;-80
2022/05/08 11:52:58;;;;;;;7.50;2.85;;;;;;;;;;4940095;29;20387;-80
2022/05/08 11:55:24;;;;;;;7.88;3.45;;;;;;;;;;4937729;29;20479;-81
2022/05/08 11:57:54;;;;;;;7.00;2.63;;;;;;;;;;4918687;29;20028;-82
2022/05/08 12:00:20;;;;;;;7.72;3.20;;;;;;;;;;4917471;29;20032;-81
2022/05/08 12:02:47;;;;;;;8.10;3.13;;;;;;;;;;4921316;29;20032;-81
2022/05/08 12:05:23;;;;;;;10.95;3.13;;;;;;;;;;4902167;29;20032;-81
2022/05/08 12:07:51;;;;;;;11.48;3.42;;;;;;;;;;4917310;29;20444;-81
2022/05/08 12:10:17;;;;;;;8.38;3.03;;;;;;;;;;4941105;29;20033;-80
2022/05/08 12:12:44;;;;;;;7.85;2.75;;;;;;;;;;4937640;29;20491;-80
2022/05/08 12:15:22;;;;;;;6.45;2.92;;;;;;;;;;4937692;29;20032;-80
2022/05/08 12:17:47;;;;;;;9.75;2.88;;;;;;;;;;4922001;29;20051;-80
2022/05/08 12:20:12;;;;;;;5.85;2.90;;;;;;;;;;4937278;29;20403;-81
2022/05/08 12:22:39;;;;;;;8.13;3.35;;;;;;;;;;4939930;29;20043;-81
2022/05/08 12:25:10;;;;;;;9.73;2.78;;;;;;;;;;4937169;29;20562;-79
2022/05/08 12:27:36;;;;;;;8.27;2.97;;;;;;;;;;4926615;29;20036;-80
2022/05/08 12:30:02;;;;;;;9.00;3.33;;;;;;;;;;4918802;29;20028;-80
2022/05/08 12:32:31;;;;;;;6.43;2.90;;;;;;;;;;4918576;29;20121;-81
2022/05/08 12:34:57;;;;;;;6.93;2.38;;;;;;;;;;4916827;29;20028;-80
2022/05/08 12:37:23;;;;;;;8.80;2.90;;;;;;;;;;4932330;29;20036;-80
2022/05/08 12:39:48;;;;;;;7.85;3.08;;;;;;;;;;4932716;29;20118;-81
2022/05/08 12:42:14;;;;;;;9.70;3.22;;;;;;;;;;4946510;28;20060;-80
2022/05/08 12:44:46;;;;;;;10.82;2.88;;;;;;;;;;4917041;29;20032;-80
2022/05/08 12:47:12;;;;;;;9.63;3.20;;;;;;;;;;4900790;29;20172;-80
2022/05/08 12:49:42;;;;;;;10.13;3.35;;;;;;;;;;4918811;29;20028;-81
2022/05/08 12:52:08;;;;;;;18.10;3.50;;;;;;;;;;4916124;29;20051;-80
2022/05/08 12:54:34;;;;;;;7.50;3.33;;;;;;;;;;4932755;29;20036;-81
2022/05/08 12:57:00;;;;;;;7.50;2.70;;;;;;;;;;4916140;29;20514;-81
2022/05/08 12:59:47;;;;;;;5.80;2.35;;;;;;;;;;4936403;29;20028;-80
2022/05/08 13:02:19;;;;;;;9.55;3.35;;;;;;;;;;4940043;29;20063;-80
2022/05/08 13:04:45;;;;;;;10.23;2.85;;;;;;;;;;4939754;29;20491;-81
2022/05/08 13:07:15;;;;;;;9.10;3.17;;;;;;;;;;4939816;29;20048;-81
2022/05/08 13:09:41;;;;;;;6.22;2.40;;;;;;;;;;4937276;29;20055;-79
2022/05/08 13:12:08;;;;;;;7.22;2.70;;;;;;;;;;4937976;29;20027;-80
2022/05/08 13:14:33;;;;;;;7.85;2.65;;;;;;;;;;4935598;29;20118;-81
2022/05/08 13:17:00;;;;;;;6.40;2.53;;;;;;;;;;4929913;29;20070;-80
2022/05/08 13:19:27;;;;;;;11.85;2.95;;;;;;;;;;4948643;29;20048;-81
2022/05/08 13:21:53;;;;;;;11.48;2.45;;;;;;;;;;4936596;29;20059;-80
2022/05/08 13:24:19;;;;;;;11.10;2.92;;;;;;;;;;4952171;29;20507;-80
2022/05/08 13:26:46;;;;;;;8.85;2.35;;;;;;;;;;4938428;29;20074;-80
2022/05/08 13:29:14;;;;;;;11.48;3.40;;;;;;;;;;4919807;29;20066;-79
2022/05/08 13:31:42;;;;;;;8.95;2.40;;;;;;;;;;4935738;29;20035;-79
2022/05/08 13:34:13;;;;;;;9.50;2.47;;;;;;;;;;4938910;29;20032;-80
2022/05/08 13:36:41;;;;;;;7.07;2.75;;;;;;;;;;4912121;29;20043;-79
2022/05/08 13:39:06;;;;;;;7.25;2.53;;;;;;;;;;4937423;29;20031;-79
2022/05/08 13:41:33;;;;;;;7.88;2.20;;;;;;;;;;4940063;29;20379;-79
2022/05/08 13:43:58;;;;;;;7.32;2.30;;;;;;;;;;4945034;29;20084;-80
2022/05/08 13:46:24;;;;;;;10.65;2.60;;;;;;;;;;4967536;28;20031;-80
2022/05/08 13:48:51;;;;;;;11.43;2.67;;;;;;;;;;4953931;29;20024;-83
2022/05/08 13:51:17;;;;;;;9.95;2.28;;;;;;;;;;4966062;29;20039;-79
2022/05/08 13:53:46;;;;;;;7.50;2.78;;;;;;;;;;4955929;29;20032;-80
2022/05/08 13:56:11;;;;;;;8.63;2.15;;;;;;;;;;4948889;29;20039;-79
2022/05/08 13:58:37;;;;;;;8.20;2.10;;;;;;;;;;4929370;29;20035;-80
2022/05/08 14:01:04;;;;;;;6.47;2.10;;;;;;;;;;4944411;29;20034;-82
2022/05/08 14:03:33;;;;;;;7.72;2.53;;;;;;;;;;4957880;29;20561;-79
2022/05/08 14:05:59;;;;;;;7.65;2.00;;;;;;;;;;4941630;29;20114;-81
2022/05/08 14:08:25;;;;;;;8.73;1.95;;;;;;;;;;4944714;29;20023;-80
2022/05/08 14:10:51;;;;;;;13.82;2.30;;;;;;;;;;4956561;29;20054;-79
2022/05/08 14:13:16;;;;;;;5.88;2.53;;;;;;;;;;4965987;29;20032;-80
2022/05/08 14:15:42;;;;;;;7.60;2.47;;;;;;;;;;4951384;29;20039;-81
2022/05/08 14:18:08;;;;;;;7.85;2.10;;;;;;;;;;4946866;29;20035;-82
2022/05/08 14:20:34;;;;;;;5.57;1.98;;;;;;;;;;4945756;29;20058;-82
2022/05/08 14:22:59;;;;;;;8.55;1.98;;;;;;;;;;4934926;29;20036;-80
2022/05/08 14:25:26;;;;;;;7.32;1.85;;;;;;;;;;4936830;29;20028;-81
2022/05/08 14:27:52;;;;;;;6.93;1.90;;;;;;;;;;4927218;29;20036;-80
2022/05/08 14:30:18;;;;;;;5.90;1.70;;;;;;;;;;4935462;29;20028;-82
2022/05/08 14:38:15;;;;;;;6.53;1.60;;;;;;;;;;4917245;29;20372;-79
2022/05/08 14:40:44;;;;;;;9.77;2.20;;;;;;;;;;4935366;29;20031;-80
2022/05/08 14:43:12;;;;;;;11.40;1.92;;;;;;;;;;4933381;29;20034;-80
2022/05/08 14:45:38;;;;;;;8.90;2.40;;;;;;;;;;4938796;29;20027;-78
2022/05/08 14:48:04;;;;;;;7.88;2.63;;;;;;;;;;4921286;29;20034;-80
2022/05/08 14:50:33;;;;;;;5.30;1.73;;;;;;;;;;4937078;29;20043;-79
2022/05/08 14:53:05;;;;;;;7.78;2.35;;;;;;;;;;4952975;29;20038;-81
2022/05/08 14:55:30;;;;;;;7.93;1.70;;;;;;;;;;4936616;29;20086;-79
2022/05/08 14:57:56;;;;;;;11.82;1.65;;;;;;;;;;4937023;29;20115;-80
2022/05/08 15:00:22;;;;;;;9.25;1.90;;;;;;;;;;4930130;29;20036;-81
2022/05/08 15:02:48;;;;;;;7.57;2.00;;;;;;;;;;4938641;29;20027;-83
2022/05/08 15:05:13;;;;;;;7.75;1.90;;;;;;;;;;4940082;29;20487;-80
2022/05/08 15:07:39;;;;;;;8.60;1.92;;;;;;;;;;4936754;29;20031;-82
2022/05/08 15:10:11;;;;;;;5.70;1.52;;;;;;;;;;4936235;29;20035;-81